createdAt,value
2018-04-16T08:14:50.180Z,985.09
2018-04-16T08:15:50.275Z,985.11
2018-04-16T08:16:50.376Z,985.12
2018-04-16T08:17:50.469Z,985.11
2018-04-16T08:18:50.566Z,985.10
2018-04-16T08:19:50.668Z,985.12
2018-04-16T08:20:50.795Z,985.15
2018-04-16T08:21:50.893Z,985.14
2018-04-16T08:22:50.999Z,985.13
2018-04-16T08:23:51.091Z,985.16
2018-04-16T08:24:51.190Z,985.26
2018-04-16T08:25:51.303Z,985.38
2018-04-16T08:26:51.427Z,985.36
2018-04-16T08:27:51.527Z,985.38
2018-04-16T08:28:51.625Z,985.38
2018-04-16T08:29:51.726Z,985.28
2018-04-16T08:30:51.827Z,985.29
2018-04-16T08:31:51.933Z,985.27
2018-04-16T08:32:52.061Z,985.20
2018-04-16T08:33:52.162Z,985.28
2018-04-16T08:34:52.665Z,985.32
2018-04-16T08:35:52.363Z,985.30
2018-04-16T08:36:52.465Z,985.07
2018-04-16T08:37:52.575Z,985.01
2018-04-16T08:38:52.678Z,985.06
2018-04-16T08:39:52.783Z,985.08
2018-04-16T08:40:52.880Z,985.08
2018-04-16T08:41:52.985Z,985.05
2018-04-16T08:42:53.088Z,985.04
2018-04-16T08:43:53.215Z,985.04
2018-04-16T08:44:53.317Z,985.07
2018-04-16T08:45:53.419Z,985.09
2018-04-16T08:46:53.521Z,985.07
2018-04-16T08:47:53.620Z,985.07
2018-04-16T08:48:53.733Z,985.11
2018-04-16T08:49:53.857Z,985.07
2018-04-16T08:50:53.957Z,985.06
2018-04-16T08:51:54.058Z,985.08
2018-04-16T08:52:54.161Z,985.09
2018-04-16T08:53:54.264Z,985.06
2018-04-16T08:54:54.367Z,985.10
2018-04-16T08:55:54.475Z,985.09
2018-04-16T08:56:54.576Z,985.07
2018-04-16T08:57:54.711Z,985.09
2018-04-16T08:58:54.779Z,985.06
2018-04-16T08:59:54.882Z,985.07
2018-04-16T09:00:55.013Z,985.00
2018-04-16T09:01:55.111Z,985.02
2018-04-16T09:02:55.213Z,985.04
2018-04-16T09:03:55.315Z,985.03
2018-04-16T09:04:55.416Z,985.09
2018-04-16T09:05:55.527Z,985.06
2018-04-16T09:06:55.655Z,985.08
2018-04-16T09:07:55.754Z,985.09
2018-04-16T09:08:55.855Z,985.11
2018-04-16T09:09:55.956Z,985.13
2018-04-16T09:10:56.058Z,985.12
2018-04-16T09:11:56.170Z,985.12
2018-04-16T09:12:56.270Z,985.13
2018-04-16T09:13:56.371Z,985.17
2018-04-16T09:14:56.474Z,985.19
2018-04-16T09:15:56.575Z,985.13
2018-04-16T09:16:56.684Z,985.20
2018-04-16T09:17:56.811Z,985.22
2018-04-16T09:18:56.913Z,985.21
2018-04-16T09:19:57.015Z,985.25
2018-04-16T09:20:57.116Z,985.26
2018-04-16T09:21:57.217Z,985.26
2018-04-16T09:22:57.345Z,985.29
2018-04-16T09:23:57.447Z,985.29
2018-04-16T09:24:57.549Z,985.31
2018-04-16T09:25:57.650Z,985.26
2018-04-16T09:26:57.752Z,985.29
2018-04-16T09:27:57.864Z,985.32
2018-04-16T09:28:57.990Z,985.30
2018-04-16T09:29:58.091Z,985.29
